createdAt,value
2023-05-14T00:00:31.615Z,10.90
2023-05-14T00:02:59.153Z,10.60
2023-05-14T00:05:26.776Z,11.02
2023-05-14T00:08:03.867Z,10.10
2023-05-14T00:10:34.894Z,10.60
2023-05-14T00:13:02.312Z,11.73
2023-05-14T00:15:30.036Z,11.00
2023-05-14T00:17:57.759Z,10.35
2023-05-14T00:20:25.344Z,11.68
2023-05-14T00:22:52.868Z,12.13
2023-05-14T00:25:22.157Z,15.48
2023-05-14T00:27:49.498Z,11.32
2023-05-14T00:30:16.755Z,12.52
2023-05-14T00:32:44.158Z,12.02
2023-05-14T00:35:12.199Z,11.35
2023-05-14T00:37:39.767Z,12.20
2023-05-14T00:40:09.122Z,12.15
2023-05-14T00:42:37.709Z,12.48
2023-05-14T00:45:06.512Z,13.57
2023-05-14T00:47:34.961Z,12.32
2023-05-14T00:50:04.687Z,14.23
2023-05-14T00:52:32.498Z,11.43
2023-05-14T00:55:03.154Z,11.45
2023-05-14T00:57:30.585Z,13.55
2023-05-14T00:59:59.150Z,14.13
2023-05-14T01:02:26.561Z,14.25
2023-05-14T01:04:54.827Z,14.02
2023-05-14T01:07:45.119Z,14.68
2023-05-14T01:10:25.377Z,13.85
2023-05-14T01:13:21.187Z,16.92
2023-05-14T01:15:49.328Z,13.95
2023-05-14T01:18:19.634Z,13.23
2023-05-14T01:20:52.604Z,15.55
2023-05-14T01:23:20.262Z,14.60
2023-05-14T01:25:47.601Z,14.30
2023-05-14T01:28:32.742Z,14.93
2023-05-14T01:31:18.543Z,14.70
2023-05-14T01:33:49.578Z,14.20
2023-05-14T01:36:23.079Z,17.85
2023-05-14T01:38:51.762Z,13.85
2023-05-14T01:41:21.912Z,15.02
2023-05-14T01:43:49.438Z,16.63
2023-05-14T01:46:20.263Z,14.35
2023-05-14T01:48:47.567Z,14.88
2023-05-14T01:51:14.917Z,16.75
2023-05-14T01:53:42.349Z,15.05
2023-05-14T01:56:09.626Z,15.25
2023-05-14T01:58:36.936Z,16.58
2023-05-14T02:01:04.354Z,17.02
2023-05-14T02:03:31.739Z,16.60
2023-05-14T02:05:59.166Z,16.13
2023-05-14T02:08:28.088Z,16.98
2023-05-14T02:10:56.051Z,16.48
2023-05-14T02:13:26.914Z,15.73
2023-05-14T02:15:54.232Z,16.75
2023-05-14T02:18:21.533Z,16.45
2023-05-14T02:20:48.753Z,17.45
2023-05-14T02:23:16.089Z,17.58
2023-05-14T02:25:44.942Z,17.73
2023-05-14T02:28:12.188Z,17.63
2023-05-14T02:30:40.115Z,17.65
2023-05-14T02:33:07.461Z,16.75
2023-05-14T02:35:34.910Z,17.38
2023-05-14T02:38:02.224Z,17.17
2023-05-14T02:40:29.458Z,18.67
2023-05-14T02:42:57.250Z,19.33
2023-05-14T02:45:24.530Z,17.10
2023-05-14T02:47:51.829Z,17.83
2023-05-14T02:50:19.066Z,18.40
2023-05-14T02:52:46.309Z,18.05
2023-05-14T02:55:13.617Z,20.55
2023-05-14T02:57:40.901Z,18.45
2023-05-14T03:00:09.407Z,18.58
2023-05-14T03:02:37.539Z,19.90
2023-05-14T03:05:05.822Z,17.58
2023-05-14T03:07:33.132Z,19.63
2023-05-14T03:10:00.697Z,18.67
2023-05-14T03:12:28.156Z,21.75
2023-05-14T03:14:55.510Z,22.05
2023-05-14T03:17:23.001Z,20.20
2023-05-14T03:19:50.924Z,23.33
2023-05-14T03:22:18.410Z,21.85
2023-05-14T03:24:45.724Z,22.55
2023-05-14T03:27:12.988Z,19.55
2023-05-14T03:29:40.380Z,20.23
2023-05-14T03:32:07.936Z,22.08
2023-05-14T03:34:35.281Z,21.42
2023-05-14T03:37:02.508Z,21.08
2023-05-14T03:39:29.780Z,21.65
2023-05-14T03:41:58.868Z,23.45
2023-05-14T03:44:26.476Z,20.85
2023-05-14T03:46:53.903Z,24.15
2023-05-14T03:49:21.287Z,21.23
2023-05-14T03:51:48.636Z,20.35
2023-05-14T03:54:15.950Z,22.42
2023-05-14T03:56:44.756Z,22.40
2023-05-14T03:59:12.024Z,22.58
2023-05-14T04:01:39.247Z,25.08
2023-05-14T04:04:06.691Z,27.52
2023-05-14T04:06:34.282Z,25.25
2023-05-14T04:09:03.497Z,25.92
2023-05-14T04:11:30.812Z,25.85
2023-05-14T04:13:59.958Z,27.60
2023-05-14T04:16:27.286Z,26.05
2023-05-14T04:18:54.619Z,24.80
2023-05-14T04:21:21.894Z,26.35
2023-05-14T04:23:49.750Z,26.67
2023-05-14T04:26:17.193Z,26.83
2023-05-14T04:28:44.546Z,24.05
2023-05-14T04:31:13.484Z,24.77
2023-05-14T04:33:40.769Z,24.65
2023-05-14T04:36:09.138Z,24.88
2023-05-14T04:38:36.398Z,23.65
2023-05-14T04:41:03.877Z,23.88
2023-05-14T04:43:31.144Z,23.05
2023-05-14T04:45:58.458Z,23.33
2023-05-14T04:48:26.133Z,24.40
2023-05-14T04:50:53.553Z,26.02
2023-05-14T04:53:20.848Z,26.50
2023-05-14T04:55:48.098Z,29.15
2023-05-14T04:58:15.420Z,23.48
2023-05-14T05:00:43.660Z,27.00
2023-05-14T05:03:11.063Z,24.25
2023-05-14T05:05:38.416Z,26.70
2023-05-14T05:08:05.809Z,26.27
2023-05-14T05:10:33.160Z,24.10
2023-05-14T05:13:00.882Z,26.88
2023-05-14T05:15:28.132Z,22.73
2023-05-14T05:17:55.452Z,22.63
2023-05-14T05:20:23.393Z,26.60
2023-05-14T05:22:50.987Z,22.75
2023-05-14T05:25:18.416Z,23.08
2023-05-14T05:27:45.639Z,22.33
2023-05-14T05:30:13.377Z,22.00
2023-05-14T05:32:40.839Z,23.55
2023-05-14T05:35:08.966Z,27.38
2023-05-14T05:37:36.364Z,24.92
2023-05-14T05:40:06.238Z,25.02
2023-05-14T05:42:33.435Z,22.23
2023-05-14T05:45:00.847Z,25.17
2023-05-14T05:47:28.250Z,24.88
2023-05-14T05:49:55.593Z,25.40
2023-05-14T05:52:22.976Z,23.33
2023-05-14T05:54:50.557Z,23.63
2023-05-14T05:57:17.772Z,23.85
2023-05-14T05:59:45.060Z,24.77
2023-05-14T06:02:21.689Z,26.08
2023-05-14T06:04:49.109Z,29.33
2023-05-14T06:07:16.590Z,26.40
2023-05-14T06:09:43.860Z,22.48
2023-05-14T06:12:12.248Z,24.13
2023-05-14T06:14:39.446Z,28.50
2023-05-14T06:17:07.592Z,23.70
2023-05-14T06:19:34.840Z,26.42
2023-05-14T06:22:02.843Z,28.50
2023-05-14T06:24:30.038Z,24.70
2023-05-14T06:26:57.346Z,23.35
2023-05-14T06:29:25.774Z,24.40
2023-05-14T06:31:53.825Z,26.45
2023-05-14T06:34:21.123Z,23.83
2023-05-14T06:36:48.366Z,20.48
2023-05-14T06:39:15.638Z,21.85
2023-05-14T06:41:42.922Z,19.52
2023-05-14T06:44:15.805Z,21.25
2023-05-14T06:46:43.175Z,22.63
2023-05-14T06:49:10.536Z,21.40
2023-05-14T06:51:39.047Z,22.02
2023-05-14T06:54:06.448Z,22.17
2023-05-14T06:56:33.778Z,21.73
2023-05-14T06:59:01.070Z,20.77
2023-05-14T07:01:28.561Z,21.35
2023-05-14T07:03:56.313Z,19.23
2023-05-14T07:06:23.903Z,22.70
2023-05-14T07:08:51.233Z,23.00
2023-05-14T07:11:18.610Z,22.15
2023-05-14T07:13:45.937Z,25.58
2023-05-14T07:16:13.476Z,24.08
2023-05-14T07:18:41.234Z,22.42
2023-05-14T07:21:08.599Z,22.40
2023-05-14T07:23:39.006Z,24.48
2023-05-14T07:26:07.836Z,20.27
2023-05-14T07:28:35.436Z,23.48
2023-05-14T07:31:05.024Z,25.00
2023-05-14T07:33:32.451Z,22.90
2023-05-14T07:35:59.662Z,23.00
2023-05-14T07:38:27.470Z,22.70
2023-05-14T07:40:55.166Z,22.75
2023-05-14T07:43:22.430Z,21.15
2023-05-14T07:45:49.793Z,20.65
2023-05-14T07:48:17.325Z,20.70
2023-05-14T07:50:45.406Z,21.65
2023-05-14T07:53:12.652Z,23.38
2023-05-14T07:55:40.302Z,22.08
2023-05-14T07:58:07.699Z,21.10
2023-05-14T08:00:35.094Z,19.48
2023-05-14T08:03:02.585Z,21.60
2023-05-14T08:05:30.283Z,21.85
2023-05-14T08:07:57.546Z,19.70
2023-05-14T08:10:25.262Z,18.83
2023-05-14T08:12:52.756Z,24.27
2023-05-14T08:15:21.504Z,24.20
2023-05-14T08:17:48.824Z,21.75
2023-05-14T08:20:16.180Z,24.45
2023-05-14T08:22:44.700Z,23.08
2023-05-14T08:25:14.967Z,23.27
2023-05-14T08:27:43.230Z,23.45
2023-05-14T08:30:12.223Z,24.25
2023-05-14T08:32:40.855Z,23.02
2023-05-14T08:35:08.904Z,22.65
2023-05-14T08:37:36.258Z,22.50
2023-05-14T08:40:04.562Z,24.88
2023-05-14T08:42:32.603Z,22.02
2023-05-14T08:45:06.218Z,23.38
2023-05-14T08:47:34.533Z,21.00
2023-05-14T08:50:06.530Z,20.48
2023-05-14T08:52:35.261Z,19.92
2023-05-14T08:55:08.078Z,21.40
2023-05-14T08:57:36.312Z,20.17
2023-05-14T09:00:08.655Z,19.00
2023-05-14T09:02:36.897Z,18.15
2023-05-14T09:05:04.632Z,17.08
2023-05-14T09:07:32.213Z,18.45
2023-05-14T09:10:03.160Z,16.88
2023-05-14T09:12:31.111Z,15.27
2023-05-14T09:14:58.371Z,16.15
2023-05-14T09:17:30.059Z,16.08
2023-05-14T09:19:58.553Z,17.42
2023-05-14T09:22:32.078Z,17.60
2023-05-14T09:25:11.061Z,16.65
2023-05-14T09:27:39.151Z,16.60
2023-05-14T09:30:13.281Z,15.25
2023-05-14T09:32:44.537Z,15.35
2023-05-14T09:35:25.694Z,14.85
2023-05-14T09:37:55.512Z,12.95
2023-05-14T09:40:25.132Z,13.55
2023-05-14T09:42:53.037Z,16.02
2023-05-14T09:45:20.505Z,13.93
2023-05-14T09:47:48.291Z,13.52
2023-05-14T09:50:16.437Z,12.10
2023-05-14T09:52:43.719Z,12.60
2023-05-14T09:55:11.387Z,11.38
2023-05-14T09:57:38.731Z,11.90
2023-05-14T10:00:10.997Z,13.43
2023-05-14T10:02:44.240Z,12.73
2023-05-14T10:05:13.354Z,12.23
2023-05-14T10:07:49.471Z,13.55
2023-05-14T10:10:21.377Z,13.38
2023-05-14T10:13:06.837Z,11.85
2023-05-14T10:15:42.812Z,12.55
2023-05-14T10:18:23.087Z,12.35
2023-05-14T10:21:20.327Z,11.15
2023-05-14T10:23:49.653Z,11.68
2023-05-14T10:26:18.458Z,11.57
2023-05-14T10:28:46.658Z,10.18
2023-05-14T10:31:14.315Z,10.32
2023-05-14T10:33:50.785Z,10.15
2023-05-14T10:36:18.974Z,11.27
2023-05-14T10:38:49.209Z,8.85
2023-05-14T10:41:18.117Z,10.00
2023-05-14T10:43:45.869Z,9.65
2023-05-14T10:46:15.625Z,10.02
2023-05-14T10:48:44.508Z,9.50
2023-05-14T10:51:13.197Z,10.23
2023-05-14T10:53:43.290Z,8.95
2023-05-14T10:56:14.388Z,8.07
2023-05-14T10:58:45.917Z,8.63
2023-05-14T11:01:14.296Z,8.10
2023-05-14T11:03:45.941Z,8.85
2023-05-14T11:06:16.434Z,9.45
2023-05-14T11:08:46.440Z,7.43
2023-05-14T11:11:15.187Z,8.38
2023-05-14T11:13:44.790Z,7.50
2023-05-14T11:16:22.780Z,7.78
2023-05-14T11:19:03.778Z,7.78
2023-05-14T11:21:32.827Z,8.05
2023-05-14T11:24:02.831Z,8.15
2023-05-14T11:26:32.148Z,9.27
2023-05-14T11:29:02.404Z,8.15
2023-05-14T11:31:31.679Z,7.20
2023-05-14T11:34:13.106Z,8.75
2023-05-14T11:36:42.499Z,11.25
2023-05-14T11:39:21.740Z,6.50
2023-05-14T11:41:50.997Z,8.48
2023-05-14T11:44:22.576Z,7.63
2023-05-14T11:47:11.693Z,7.70
2023-05-14T11:49:46.716Z,9.95
2023-05-14T11:52:28.172Z,7.65
2023-05-14T11:54:59.152Z,6.93
2023-05-14T11:57:33.895Z,7.50
2023-05-14T12:00:34.061Z,6.40
2023-05-14T12:03:05.187Z,6.65
2023-05-14T12:06:00.908Z,6.45
2023-05-14T12:08:33.566Z,6.50
2023-05-14T12:11:02.402Z,6.28
2023-05-14T12:13:33.460Z,6.88
2023-05-14T12:16:13.329Z,6.13
2023-05-14T12:18:41.838Z,6.10
2023-05-14T12:21:15.886Z,6.30
2023-05-14T12:23:45.544Z,6.18
2023-05-14T12:26:14.326Z,4.93
2023-05-14T12:29:02.365Z,7.15
2023-05-14T12:32:09.314Z,6.53
2023-05-14T12:34:38.381Z,8.63
2023-05-14T12:37:07.809Z,8.07
2023-05-14T12:39:37.719Z,8.15
2023-05-14T12:42:08.949Z,7.53
2023-05-14T12:44:45.274Z,8.00
2023-05-14T12:47:22.155Z,9.65
2023-05-14T12:49:51.461Z,6.75
2023-05-14T12:52:29.472Z,7.05
2023-05-14T12:55:05.673Z,7.32
2023-05-14T12:57:35.434Z,6.53
2023-05-14T13:00:07.898Z,10.13
2023-05-14T13:02:43.021Z,7.60
2023-05-14T13:05:12.804Z,8.03
2023-05-14T13:07:40.375Z,5.80
2023-05-14T13:10:10.346Z,5.40
2023-05-14T13:12:38.668Z,4.57
2023-05-14T13:15:07.174Z,10.13
2023-05-14T13:17:34.588Z,6.10
2023-05-14T13:20:01.982Z,6.38
2023-05-14T13:22:29.792Z,7.40
2023-05-14T13:24:57.114Z,5.75
2023-05-14T13:27:24.527Z,5.10
2023-05-14T13:29:52.077Z,7.63
2023-05-14T13:32:19.431Z,7.85
2023-05-14T13:34:46.693Z,7.10
2023-05-14T13:37:14.539Z,8.38
2023-05-14T13:39:41.828Z,6.47
2023-05-14T13:42:09.351Z,6.97
2023-05-14T13:44:36.853Z,6.13
2023-05-14T13:47:04.720Z,6.38
2023-05-14T13:49:32.110Z,6.70
2023-05-14T13:51:59.418Z,7.45
2023-05-14T13:54:26.803Z,7.05
2023-05-14T13:56:55.335Z,6.53
2023-05-14T13:59:23.919Z,7.38
2023-05-14T14:01:51.886Z,6.35
2023-05-14T14:04:20.048Z,7.35
2023-05-14T14:06:47.799Z,7.13
2023-05-14T14:09:15.214Z,7.07
2023-05-14T14:11:42.780Z,6.72
2023-05-14T14:14:11.445Z,7.68
2023-05-14T14:16:39.230Z,8.73
2023-05-14T14:19:07.339Z,7.55
2023-05-14T14:21:35.457Z,8.18
2023-05-14T14:24:03.052Z,7.07
2023-05-14T14:26:30.347Z,7.20
2023-05-14T14:28:57.688Z,6.63
2023-05-14T14:31:25.097Z,4.93
2023-05-14T14:33:52.550Z,6.38
2023-05-14T14:36:19.819Z,6.28
2023-05-14T14:38:47.150Z,6.18
2023-05-14T14:41:14.403Z,6.28
2023-05-14T14:43:42.195Z,6.50
2023-05-14T14:46:10.410Z,11.50
2023-05-14T14:48:37.975Z,7.60
2023-05-14T14:51:07.914Z,5.30
2023-05-14T14:53:37.181Z,6.53
2023-05-14T14:56:05.132Z,8.80
2023-05-14T14:58:32.827Z,7.25
2023-05-14T15:01:01.671Z,6.32
2023-05-14T15:03:29.336Z,6.43
2023-05-14T15:05:56.840Z,6.15
2023-05-14T15:08:27.967Z,6.45
2023-05-14T15:10:59.440Z,6.75
2023-05-14T15:13:27.148Z,6.63
2023-05-14T15:15:54.486Z,6.72
2023-05-14T15:18:21.855Z,7.82
2023-05-14T15:20:49.381Z,6.88
2023-05-14T15:23:16.757Z,8.00
2023-05-14T15:25:44.404Z,6.63
2023-05-14T15:28:11.657Z,5.97
2023-05-14T15:30:38.996Z,7.40
2023-05-14T15:33:08.888Z,5.45
2023-05-14T15:35:36.632Z,6.85
2023-05-14T15:38:05.202Z,7.63
2023-05-14T15:40:34.999Z,8.60
2023-05-14T15:43:02.349Z,7.18
2023-05-14T15:45:29.659Z,6.95
2023-05-14T15:47:57.272Z,7.63
2023-05-14T15:50:27.423Z,7.18
2023-05-14T15:52:54.869Z,11.55
2023-05-14T15:55:22.282Z,8.68
2023-05-14T15:57:50.865Z,8.85
2023-05-14T16:00:18.754Z,9.05
2023-05-14T16:02:46.167Z,9.32
2023-05-14T16:05:15.326Z,10.40
2023-05-14T16:07:43.520Z,9.05
2023-05-14T16:10:11.355Z,9.98
2023-05-14T16:12:38.772Z,9.43
2023-05-14T16:15:08.268Z,9.55
2023-05-14T16:17:35.919Z,12.25
2023-05-14T16:20:04.918Z,7.88
2023-05-14T16:22:34.628Z,8.40
2023-05-14T16:25:04.289Z,8.93
2023-05-14T16:27:31.771Z,9.65
2023-05-14T16:29:59.409Z,8.63
2023-05-14T16:32:27.697Z,9.88
2023-05-14T16:34:56.553Z,9.23
2023-05-14T16:37:23.997Z,10.60
2023-05-14T16:39:51.287Z,9.15
2023-05-14T16:42:18.558Z,9.10
2023-05-14T16:44:45.834Z,10.02
2023-05-14T16:47:13.351Z,9.32
2023-05-14T16:49:40.638Z,9.10
2023-05-14T16:52:08.436Z,9.27
2023-05-14T16:54:36.438Z,9.07
2023-05-14T16:57:04.360Z,7.78
2023-05-14T16:59:31.762Z,9.00
2023-05-14T17:01:59.111Z,8.68
2023-05-14T17:04:26.637Z,7.93
2023-05-14T17:06:54.515Z,8.60
2023-05-14T17:09:21.792Z,10.43
2023-05-14T17:11:49.156Z,13.15
2023-05-14T17:14:16.547Z,8.13
2023-05-14T17:16:43.978Z,10.32
2023-05-14T17:19:11.355Z,10.07
2023-05-14T17:21:38.716Z,10.05
2023-05-14T17:24:06.462Z,9.60
2023-05-14T17:26:33.736Z,9.52
2023-05-14T17:29:01.750Z,8.98
2023-05-14T17:31:29.238Z,10.48
2023-05-14T17:33:56.856Z,10.98
2023-05-14T17:36:25.137Z,10.73
2023-05-14T17:38:52.546Z,11.88
2023-05-14T17:41:19.790Z,9.57
2023-05-14T17:43:47.060Z,8.80
2023-05-14T17:46:14.468Z,12.30
2023-05-14T17:48:41.865Z,9.48
2023-05-14T17:51:09.146Z,10.25
2023-05-14T17:53:36.344Z,13.57
2023-05-14T17:56:04.701Z,13.82
2023-05-14T17:58:31.992Z,14.25
2023-05-14T18:00:59.374Z,15.18
2023-05-14T18:03:27.030Z,18.40
2023-05-14T18:05:54.703Z,18.35
2023-05-14T18:08:26.845Z,19.00
2023-05-14T18:10:54.293Z,22.17
2023-05-14T18:13:21.851Z,19.65
2023-05-14T18:15:51.569Z,20.85
2023-05-14T18:18:18.891Z,20.00
2023-05-14T18:20:46.300Z,19.92
2023-05-14T18:23:13.566Z,18.27
2023-05-14T18:25:40.820Z,20.83
2023-05-14T18:28:09.266Z,19.73
2023-05-14T18:30:36.600Z,23.08
2023-05-14T18:33:04.052Z,18.95
2023-05-14T18:35:31.425Z,18.02
2023-05-14T18:37:58.808Z,18.00
2023-05-14T18:40:26.054Z,17.40
2023-05-14T18:42:53.362Z,21.67
2023-05-14T18:45:21.949Z,18.08
2023-05-14T18:47:50.023Z,18.30
2023-05-14T18:50:17.409Z,17.70
2023-05-14T18:52:44.905Z,20.90
2023-05-14T18:55:12.303Z,20.80
2023-05-14T18:57:40.016Z,19.40
2023-05-14T19:00:08.498Z,16.38
2023-05-14T19:02:36.057Z,18.85
2023-05-14T19:05:03.443Z,20.15
2023-05-14T19:07:31.599Z,16.75
2023-05-14T19:09:58.841Z,24.15
2023-05-14T19:12:26.743Z,18.10
2023-05-14T19:14:55.344Z,19.23
2023-05-14T19:17:22.784Z,22.90
2023-05-14T19:19:50.316Z,19.58
2023-05-14T19:22:17.743Z,18.35
2023-05-14T19:24:45.017Z,19.17
2023-05-14T19:27:16.154Z,19.50
2023-05-14T19:29:44.610Z,17.88
2023-05-14T19:32:11.886Z,18.60
2023-05-14T19:34:39.094Z,21.52
2023-05-14T19:37:06.643Z,23.92
2023-05-14T19:39:33.860Z,20.40
2023-05-14T19:42:01.319Z,22.33
2023-05-14T19:44:28.699Z,18.77
2023-05-14T19:46:56.100Z,21.05
2023-05-14T19:49:23.480Z,22.38
2023-05-14T19:51:50.771Z,21.27
2023-05-14T19:54:19.265Z,20.83
2023-05-14T19:56:46.826Z,23.92
2023-05-14T19:59:14.140Z,21.45
2023-05-14T20:01:41.588Z,23.48
2023-05-14T20:04:09.013Z,20.63
2023-05-14T20:06:36.934Z,23.60
2023-05-14T20:09:05.880Z,23.40
2023-05-14T20:11:33.237Z,18.63
2023-05-14T20:14:00.448Z,19.05
2023-05-14T20:16:28.594Z,18.60
2023-05-14T20:18:56.273Z,29.38
2023-05-14T20:21:23.777Z,22.08
2023-05-14T20:23:52.161Z,18.73
2023-05-14T20:26:19.608Z,20.40
2023-05-14T20:28:46.816Z,18.67
2023-05-14T20:31:14.190Z,17.58
2023-05-14T20:33:41.507Z,21.50
2023-05-14T20:36:08.756Z,16.15
2023-05-14T20:38:36.311Z,16.45
2023-05-14T20:41:03.603Z,22.77
2023-05-14T20:43:30.981Z,15.75
2023-05-14T20:46:02.237Z,23.27
2023-05-14T20:48:29.584Z,21.23
2023-05-14T20:50:56.838Z,16.40
2023-05-14T20:53:25.444Z,17.65
2023-05-14T20:55:52.758Z,18.48
2023-05-14T20:58:20.460Z,18.35
2023-05-14T21:00:47.851Z,17.95
2023-05-14T21:03:15.302Z,17.85
2023-05-14T21:05:43.769Z,25.90
2023-05-14T21:08:11.310Z,20.48
2023-05-14T21:10:38.610Z,18.85
2023-05-14T21:13:07.120Z,22.05
2023-05-14T21:15:34.492Z,23.40
2023-05-14T21:18:03.133Z,19.55
2023-05-14T21:20:30.594Z,21.90
2023-05-14T21:22:57.932Z,20.95
2023-05-14T21:25:25.576Z,22.48
2023-05-14T21:27:53.060Z,18.80
2023-05-14T21:30:20.451Z,24.88
2023-05-14T21:32:47.834Z,26.85
2023-05-14T21:35:15.956Z,23.75
2023-05-14T21:37:43.409Z,20.10
2023-05-14T21:40:14.644Z,19.40
2023-05-14T21:42:41.955Z,18.80
2023-05-14T21:45:10.521Z,21.90
2023-05-14T21:47:38.571Z,22.02
2023-05-14T21:50:08.556Z,22.10
2023-05-14T21:52:38.129Z,20.77
2023-05-14T21:55:06.351Z,18.98
2023-05-14T21:57:34.648Z,18.08
2023-05-14T22:00:04.801Z,20.15
2023-05-14T22:02:32.483Z,20.00
2023-05-14T22:05:00.052Z,18.90
2023-05-14T22:07:27.431Z,19.50
2023-05-14T22:09:54.794Z,21.23
2023-05-14T22:12:22.066Z,20.00
2023-05-14T22:14:49.449Z,18.88
2023-05-14T22:17:16.780Z,22.50
2023-05-14T22:19:44.051Z,29.58
2023-05-14T22:22:11.334Z,19.60
2023-05-14T22:24:38.583Z,24.10
2023-05-14T22:27:06.253Z,23.20
2023-05-14T22:29:33.945Z,22.27
2023-05-14T22:32:02.031Z,22.35
2023-05-14T22:34:29.244Z,21.58
2023-05-14T22:36:56.507Z,25.23
2023-05-14T22:39:23.753Z,19.55
2023-05-14T22:41:54.947Z,21.90
2023-05-14T22:44:23.645Z,16.50
2023-05-14T22:46:51.331Z,22.48
2023-05-14T22:49:18.615Z,24.33
2023-05-14T22:51:45.952Z,21.30
2023-05-14T22:54:13.221Z,19.98
2023-05-14T22:56:40.572Z,20.38
2023-05-14T22:59:10.315Z,21.88
2023-05-14T23:01:37.724Z,24.75
2023-05-14T23:04:05.253Z,24.88
2023-05-14T23:06:32.568Z,25.38
2023-05-14T23:08:59.747Z,24.13
2023-05-14T23:11:27.393Z,24.85
2023-05-14T23:13:54.592Z,22.05
2023-05-14T23:16:22.027Z,23.80
2023-05-14T23:18:49.559Z,20.70
2023-05-14T23:21:16.952Z,22.10
2023-05-14T23:23:45.395Z,24.67
2023-05-14T23:26:13.472Z,21.33
2023-05-14T23:28:41.128Z,20.15
2023-05-14T23:31:08.372Z,21.48
2023-05-14T23:33:35.971Z,24.08
2023-05-14T23:36:04.327Z,26.27
2023-05-14T23:38:32.072Z,21.40
2023-05-14T23:40:59.343Z,19.40
2023-05-14T23:43:26.647Z,22.05
2023-05-14T23:45:54.159Z,20.70
2023-05-14T23:48:21.430Z,19.80
2023-05-14T23:50:48.809Z,21.17
2023-05-14T23:53:16.045Z,22.02
2023-05-14T23:55:43.551Z,25.13
2023-05-14T23:58:11.007Z,26.17
